createdAt,value
2022-09-25T00:02:21.475Z,5.13
2022-09-25T00:05:12.244Z,5.80
2022-09-25T00:08:00.537Z,3.75
2022-09-25T00:10:52.503Z,5.00
2022-09-25T00:13:41.180Z,4.03
2022-09-25T00:16:32.322Z,5.05
2022-09-25T00:19:40.087Z,4.32
2022-09-25T00:22:30.359Z,5.22
2022-09-25T00:25:18.985Z,4.00
2022-09-25T00:28:07.601Z,4.30
2022-09-25T00:30:56.148Z,6.40
2022-09-25T00:33:44.869Z,3.85
2022-09-25T00:36:34.033Z,4.20
2022-09-25T00:39:23.624Z,3.65
2022-09-25T00:42:14.356Z,5.22
2022-09-25T00:47:57.656Z,4.63
2022-09-25T00:50:51.042Z,3.17
2022-09-25T00:53:41.336Z,4.15
2022-09-25T00:56:36.168Z,4.40
2022-09-25T00:59:28.974Z,3.53
2022-09-25T01:02:25.186Z,4.88
2022-09-25T01:05:16.244Z,4.50
2022-09-25T01:08:07.815Z,3.85
2022-09-25T01:10:55.930Z,4.70
2022-09-25T01:13:45.899Z,4.38
2022-09-25T01:16:41.474Z,4.15
2022-09-25T01:19:44.465Z,3.70
2022-09-25T01:22:47.602Z,4.13
2022-09-25T01:25:49.023Z,3.58
2022-09-25T01:29:03.041Z,4.32
2022-09-25T01:32:03.273Z,4.10
2022-09-25T01:34:57.805Z,4.13
2022-09-25T01:37:50.929Z,5.18
2022-09-25T01:40:44.249Z,4.45
2022-09-25T01:43:38.237Z,4.43
2022-09-25T01:46:32.184Z,4.60
2022-09-25T01:49:26.371Z,4.22
2022-09-25T01:52:18.802Z,3.85
2022-09-25T01:55:12.787Z,4.15
2022-09-25T01:58:08.131Z,3.70
2022-09-25T02:01:01.042Z,4.85
2022-09-25T02:03:56.431Z,4.85
2022-09-25T02:06:48.990Z,3.88
2022-09-25T02:09:42.771Z,3.88
2022-09-25T02:12:36.976Z,3.72
2022-09-25T02:15:30.869Z,3.67
2022-09-25T02:18:38.390Z,3.47
2022-09-25T02:21:36.110Z,4.30
2022-09-25T02:24:30.774Z,3.75
2022-09-25T02:27:20.508Z,3.38
2022-09-25T02:30:11.791Z,3.00
2022-09-25T02:32:59.835Z,4.82
2022-09-25T02:35:48.702Z,4.80
2022-09-25T02:38:38.192Z,3.83
2022-09-25T02:41:40.551Z,3.45
2022-09-25T02:44:38.449Z,3.17
2022-09-25T02:47:36.816Z,3.97
2022-09-25T02:50:29.863Z,3.42
2022-09-25T02:53:23.499Z,3.53
2022-09-25T02:56:17.559Z,3.75
2022-09-25T02:59:10.865Z,3.42
2022-09-25T03:02:00.871Z,3.60
2022-09-25T03:04:52.150Z,4.60
2022-09-25T03:07:54.526Z,3.10
2022-09-25T03:10:46.371Z,3.65
2022-09-25T03:13:36.451Z,3.13
2022-09-25T03:16:33.837Z,3.65
2022-09-25T03:19:22.021Z,4.97
2022-09-25T03:22:10.340Z,3.58
2022-09-25T03:24:58.454Z,3.28
2022-09-25T03:27:48.835Z,3.42
2022-09-25T03:30:41.098Z,3.70
2022-09-25T03:33:31.339Z,3.85
2022-09-25T03:36:21.411Z,4.25
2022-09-25T03:39:11.203Z,3.33
2022-09-25T03:41:59.164Z,3.63
2022-09-25T03:44:47.662Z,4.32
2022-09-25T03:47:37.458Z,3.63
2022-09-25T03:50:26.515Z,4.32
2022-09-25T03:53:14.472Z,3.30
2022-09-25T03:56:04.490Z,4.07
2022-09-25T03:58:54.320Z,4.63
2022-09-25T04:01:42.923Z,3.58
2022-09-25T04:04:33.302Z,3.58
2022-09-25T04:07:21.703Z,3.42
2022-09-25T04:10:10.683Z,4.43
2022-09-25T04:12:59.280Z,4.18
2022-09-25T04:15:47.536Z,3.72
2022-09-25T04:18:36.179Z,3.70
2022-09-25T04:21:25.860Z,3.55
2022-09-25T04:24:32.074Z,3.25
2022-09-25T04:27:22.523Z,3.70
2022-09-25T04:30:12.089Z,3.03
2022-09-25T04:33:17.756Z,3.60
2022-09-25T04:36:07.604Z,2.83
2022-09-25T04:38:56.885Z,3.60
2022-09-25T04:41:45.232Z,3.97
2022-09-25T04:44:33.481Z,2.85
2022-09-25T04:47:22.799Z,3.50
2022-09-25T04:50:11.003Z,2.85
2022-09-25T04:53:00.692Z,3.47
2022-09-25T04:55:50.251Z,3.03
2022-09-25T04:58:39.214Z,2.90
2022-09-25T05:01:27.881Z,3.92
2022-09-25T05:04:17.511Z,3.33
2022-09-25T05:07:05.813Z,3.80
2022-09-25T05:09:54.339Z,3.55
2022-09-25T05:12:44.164Z,3.60
2022-09-25T05:15:34.545Z,3.67
2022-09-25T05:18:24.731Z,3.17
2022-09-25T05:21:13.318Z,3.08
2022-09-25T05:24:01.506Z,16.15
2022-09-25T05:26:49.931Z,7.95
2022-09-25T05:29:41.197Z,6.38
2022-09-25T05:35:20.135Z,13.25
2022-09-25T05:38:09.240Z,6.10
2022-09-25T05:41:03.098Z,6.88
2022-09-25T05:43:51.459Z,4.30
2022-09-25T05:46:41.510Z,7.90
2022-09-25T05:49:29.952Z,7.45
2022-09-25T05:52:18.288Z,3.88
2022-09-25T05:55:08.422Z,3.63
2022-09-25T05:58:01.417Z,2.30
2022-09-25T06:00:50.657Z,2.40
2022-09-25T06:03:40.357Z,2.47
2022-09-25T06:06:32.093Z,5.32
2022-09-25T06:12:08.119Z,2.95
2022-09-25T06:14:56.268Z,5.82
2022-09-25T06:17:45.152Z,2.33
2022-09-25T06:20:35.399Z,2.90
2022-09-25T06:23:23.751Z,4.72
2022-09-25T06:26:12.676Z,6.65
2022-09-25T06:29:03.269Z,3.63
2022-09-25T06:31:53.700Z,19.17
2022-09-25T06:34:41.955Z,71.03
2022-09-25T06:37:31.732Z,54.67
2022-09-25T06:40:20.357Z,24.25
2022-09-25T06:43:11.991Z,13.50
2022-09-25T06:46:03.936Z,19.27
2022-09-25T06:48:54.460Z,18.33
2022-09-25T06:51:42.881Z,12.65
2022-09-25T06:54:33.264Z,11.18
2022-09-25T06:57:21.899Z,6.22
2022-09-25T07:00:11.306Z,8.55
2022-09-25T07:03:17.263Z,6.88
2022-09-25T07:06:07.574Z,3.83
2022-09-25T07:08:57.364Z,3.67
2022-09-25T07:11:48.729Z,5.93
2022-09-25T07:17:25.235Z,6.90
2022-09-25T07:20:15.666Z,4.00
2022-09-25T07:23:04.351Z,4.63
2022-09-25T07:25:53.151Z,3.53
2022-09-25T07:28:43.994Z,6.15
2022-09-25T07:31:34.213Z,4.95
2022-09-25T07:34:22.395Z,5.47
2022-09-25T07:37:11.722Z,8.00
2022-09-25T07:39:59.721Z,13.80
2022-09-25T07:42:48.088Z,20.08
2022-09-25T07:45:37.538Z,22.30
2022-09-25T07:48:27.351Z,26.48
2022-09-25T07:51:15.796Z,14.98
2022-09-25T07:54:04.633Z,12.27
2022-09-25T07:56:53.134Z,9.15
2022-09-25T07:59:41.383Z,41.67
2022-09-25T08:02:30.984Z,71.00
2022-09-25T08:05:19.939Z,21.42
2022-09-25T08:08:08.381Z,12.57
2022-09-25T08:11:02.794Z,24.52
2022-09-25T08:13:51.486Z,14.50
2022-09-25T08:16:41.149Z,18.13
2022-09-25T08:19:31.147Z,10.20
2022-09-25T08:22:19.834Z,11.45
2022-09-25T08:25:08.893Z,7.05
2022-09-25T08:27:57.082Z,5.95
2022-09-25T08:30:45.576Z,5.25
2022-09-25T08:33:34.683Z,5.07
2022-09-25T08:36:24.507Z,6.55
2022-09-25T08:39:13.115Z,5.47
2022-09-25T08:42:02.070Z,6.28
2022-09-25T08:45:21.525Z,4.10
2022-09-25T08:48:33.829Z,3.85
2022-09-25T08:51:23.977Z,7.53
2022-09-25T08:54:18.565Z,4.05
2022-09-25T08:57:17.615Z,2.97
2022-09-25T09:00:09.343Z,2.97
2022-09-25T09:02:59.966Z,3.92
2022-09-25T09:05:58.752Z,3.35
2022-09-25T09:09:00.322Z,22.30
2022-09-25T09:11:52.546Z,13.80
2022-09-25T09:14:46.399Z,10.27
2022-09-25T09:17:42.519Z,8.40
2022-09-25T09:20:39.226Z,4.75
2022-09-25T09:23:35.443Z,8.50
2022-09-25T09:26:33.364Z,6.22
2022-09-25T09:29:34.826Z,5.95
2022-09-25T09:35:31.248Z,4.53
2022-09-25T09:38:29.872Z,4.18
2022-09-25T09:41:31.008Z,3.28
2022-09-25T09:44:35.018Z,3.92
2022-09-25T09:47:41.503Z,4.53
2022-09-25T09:50:43.247Z,2.92
2022-09-25T09:53:39.875Z,3.28
2022-09-25T09:56:32.463Z,3.33
2022-09-25T09:59:23.959Z,2.83
2022-09-25T10:02:29.198Z,3.45
2022-09-25T10:05:24.783Z,4.30
2022-09-25T10:08:13.962Z,3.40
2022-09-25T10:11:06.786Z,5.03
2022-09-25T10:14:00.027Z,3.30
2022-09-25T10:16:50.563Z,3.60
2022-09-25T10:19:48.276Z,3.30
2022-09-25T10:22:39.770Z,3.17
2022-09-25T10:28:31.394Z,2.50
2022-09-25T10:31:22.488Z,2.90
2022-09-25T10:34:22.212Z,3.33
2022-09-25T10:37:22.026Z,6.97
2022-09-25T10:40:27.227Z,4.45
2022-09-25T10:43:23.763Z,4.63
2022-09-25T10:46:15.804Z,3.70
2022-09-25T10:49:35.012Z,3.60
2022-09-25T10:52:23.199Z,2.95
2022-09-25T10:55:20.940Z,3.05
2022-09-25T10:58:15.790Z,3.53
2022-09-25T11:01:06.177Z,5.05
2022-09-25T11:03:57.160Z,4.07
2022-09-25T11:06:49.824Z,4.78
2022-09-25T11:09:44.220Z,5.47
2022-09-25T11:12:33.868Z,4.07
2022-09-25T11:15:24.954Z,2.83
2022-09-25T11:18:36.191Z,6.30
2022-09-25T11:21:31.626Z,2.72
2022-09-25T11:24:27.974Z,3.92
2022-09-25T11:27:21.655Z,3.47
2022-09-25T11:30:14.456Z,3.20
2022-09-25T11:33:08.432Z,3.42
2022-09-25T11:36:02.033Z,2.90
2022-09-25T11:39:12.346Z,2.63
2022-09-25T11:42:06.431Z,3.38
2022-09-25T11:45:04.979Z,3.30
2022-09-25T11:47:58.911Z,3.45
2022-09-25T11:50:54.166Z,3.53
2022-09-25T11:53:50.323Z,2.83
2022-09-25T11:56:43.037Z,3.20
2022-09-25T11:59:44.401Z,3.33
2022-09-25T12:02:41.001Z,3.15
2022-09-25T12:05:48.304Z,2.85
2022-09-25T12:08:50.584Z,4.05
2022-09-25T12:11:49.908Z,2.70
2022-09-25T12:14:47.215Z,3.40
2022-09-25T12:17:43.474Z,20.67
2022-09-25T12:20:38.902Z,6.95
2022-09-25T12:23:32.713Z,10.52
2022-09-25T12:26:31.078Z,13.43
2022-09-25T12:29:32.605Z,8.32
2022-09-25T12:32:32.285Z,9.93
2022-09-25T12:35:34.073Z,3.63
2022-09-25T12:38:31.398Z,6.80
2022-09-25T12:41:28.876Z,4.63
2022-09-25T12:44:27.275Z,7.90
2022-09-25T12:47:23.860Z,3.30
2022-09-25T12:50:17.750Z,3.83
2022-09-25T12:53:19.019Z,4.68
2022-09-25T12:56:13.726Z,4.40
2022-09-25T12:59:11.326Z,4.75
2022-09-25T13:02:06.036Z,7.53
2022-09-25T13:05:06.355Z,20.23
2022-09-25T13:08:00.468Z,8.13
2022-09-25T13:10:53.615Z,11.85
2022-09-25T13:13:45.717Z,7.72
2022-09-25T13:16:35.602Z,5.55
2022-09-25T13:19:28.857Z,5.07
2022-09-25T13:22:22.096Z,4.38
2022-09-25T13:25:15.983Z,4.72
2022-09-25T13:28:09.410Z,3.70
2022-09-25T13:31:09.363Z,5.97
2022-09-25T13:34:05.643Z,4.18
2022-09-25T13:36:55.306Z,4.47
2022-09-25T13:40:04.199Z,5.20
2022-09-25T13:42:55.647Z,6.03
2022-09-25T13:45:44.202Z,4.57
2022-09-25T13:48:36.197Z,3.53
2022-09-25T13:51:35.818Z,3.35
2022-09-25T13:54:28.635Z,6.53
2022-09-25T13:57:17.439Z,5.00
2022-09-25T14:00:16.610Z,11.15
2022-09-25T14:03:06.501Z,5.55
2022-09-25T14:05:54.782Z,8.75
2022-09-25T14:08:44.889Z,10.43
2022-09-25T14:11:35.283Z,9.85
2022-09-25T14:14:28.449Z,6.97
2022-09-25T14:17:18.130Z,4.53
2022-09-25T14:20:18.988Z,6.68
2022-09-25T14:23:14.284Z,4.03
2022-09-25T14:26:06.236Z,6.85
2022-09-25T14:28:55.442Z,11.48
2022-09-25T14:31:52.277Z,22.25
2022-09-25T14:34:58.467Z,48.47
2022-09-25T14:37:59.451Z,40.40
2022-09-25T14:41:06.106Z,43.83
2022-09-25T14:44:18.375Z,39.33
2022-09-25T14:47:08.571Z,35.25
2022-09-25T14:49:59.587Z,29.25
2022-09-25T14:52:50.578Z,63.42
2022-09-25T14:55:46.615Z,58.03
2022-09-25T14:58:35.153Z,35.75
2022-09-25T15:01:27.838Z,25.25
2022-09-25T15:04:27.462Z,21.80
2022-09-25T15:07:20.936Z,24.90
2022-09-25T15:10:28.697Z,23.80
2022-09-25T15:13:18.668Z,22.52
2022-09-25T15:16:26.342Z,21.95
2022-09-25T15:19:20.788Z,11.10
2022-09-25T15:22:11.351Z,13.75
2022-09-25T15:25:04.270Z,9.68
2022-09-25T15:27:52.311Z,49.70
2022-09-25T15:30:42.401Z,50.05
2022-09-25T15:33:32.245Z,41.10
2022-09-25T15:36:24.379Z,32.13
2022-09-25T15:42:07.479Z,19.15
2022-09-25T15:44:58.561Z,8.50
2022-09-25T15:50:44.719Z,8.85
2022-09-25T15:53:36.278Z,11.23
2022-09-25T15:56:26.586Z,9.50
2022-09-25T15:59:20.631Z,13.85
2022-09-25T16:02:36.351Z,15.50
2022-09-25T16:05:30.180Z,18.08
2022-09-25T16:08:29.403Z,15.07
2022-09-25T16:11:22.727Z,293.23
2022-09-25T16:14:30.326Z,292.33
2022-09-25T16:17:25.001Z,267.67
2022-09-25T16:20:31.278Z,261.55
2022-09-25T16:23:28.539Z,198.13
2022-09-25T16:26:22.170Z,136.27
2022-09-25T16:29:22.703Z,149.05
2022-09-25T16:32:19.326Z,146.35
2022-09-25T16:35:08.412Z,125.07
2022-09-25T16:37:56.588Z,120.75
2022-09-25T16:41:02.788Z,119.05
2022-09-25T16:44:14.227Z,144.85
2022-09-25T16:47:13.184Z,114.00
2022-09-25T16:50:02.827Z,124.28
2022-09-25T16:52:52.124Z,128.02
2022-09-25T16:55:53.242Z,119.70
2022-09-25T16:58:41.600Z,129.57
2022-09-25T17:01:30.417Z,99.70
2022-09-25T17:04:20.744Z,90.88
2022-09-25T17:07:11.844Z,105.82
2022-09-25T17:10:01.750Z,91.80
2022-09-25T17:12:53.763Z,99.65
2022-09-25T17:15:43.401Z,107.68
2022-09-25T17:18:31.778Z,112.32
2022-09-25T17:21:20.662Z,94.53
2022-09-25T17:24:12.499Z,88.65
2022-09-25T17:27:02.344Z,99.18
2022-09-25T17:29:51.737Z,93.60
2022-09-25T17:32:44.109Z,88.78
2022-09-25T17:35:41.291Z,94.03
2022-09-25T17:38:32.516Z,88.50
2022-09-25T17:41:27.551Z,92.03
2022-09-25T17:44:19.606Z,99.03
2022-09-25T17:47:09.668Z,85.85
2022-09-25T17:49:59.564Z,66.97
2022-09-25T17:52:47.580Z,69.57
2022-09-25T17:55:36.504Z,79.57
2022-09-25T17:58:27.632Z,75.25
2022-09-25T18:01:22.184Z,80.30
2022-09-25T18:04:19.412Z,61.65
2022-09-25T18:07:08.132Z,70.90
2022-09-25T18:09:56.382Z,68.07
2022-09-25T18:12:45.364Z,62.20
2022-09-25T18:15:37.410Z,60.33
2022-09-25T18:18:46.267Z,52.45
2022-09-25T18:21:51.984Z,69.95
2022-09-25T18:24:41.447Z,63.78
2022-09-25T18:27:33.099Z,54.13
2022-09-25T18:30:24.722Z,69.80
2022-09-25T18:33:14.196Z,57.50
2022-09-25T18:36:02.942Z,62.40
2022-09-25T18:38:50.986Z,59.92
2022-09-25T18:41:40.705Z,64.00
2022-09-25T18:44:28.974Z,62.83
2022-09-25T18:47:17.376Z,50.25
2022-09-25T18:50:07.855Z,61.05
2022-09-25T18:52:56.763Z,59.10
2022-09-25T18:55:44.859Z,55.53
2022-09-25T18:58:33.866Z,60.83
2022-09-25T19:01:22.012Z,57.03
2022-09-25T19:04:16.012Z,43.40
2022-09-25T19:07:05.481Z,50.67
2022-09-25T19:09:54.182Z,50.08
2022-09-25T19:12:42.252Z,62.00
2022-09-25T19:15:31.148Z,50.67
2022-09-25T19:18:19.239Z,40.45
2022-09-25T19:21:08.340Z,54.85
2022-09-25T19:23:58.431Z,48.85
2022-09-25T19:26:48.253Z,46.60
2022-09-25T19:29:36.284Z,32.03
2022-09-25T19:32:25.580Z,43.72
2022-09-25T19:35:14.041Z,50.25
2022-09-25T19:38:02.565Z,28.02
2022-09-25T19:40:52.673Z,41.05
2022-09-25T19:43:41.742Z,36.30
2022-09-25T19:46:31.890Z,32.05
2022-09-25T19:49:20.781Z,43.20
2022-09-25T19:52:09.187Z,31.35
2022-09-25T19:54:57.747Z,42.47
2022-09-25T19:57:48.237Z,33.70
2022-09-25T20:00:37.111Z,39.45
2022-09-25T20:03:25.419Z,34.08
2022-09-25T20:06:15.210Z,34.78
2022-09-25T20:09:04.036Z,29.35
2022-09-25T20:11:52.222Z,33.35
2022-09-25T20:14:41.780Z,22.45
2022-09-25T20:17:30.251Z,32.17
2022-09-25T20:20:18.904Z,32.05
2022-09-25T20:23:08.644Z,27.48
2022-09-25T20:26:08.352Z,35.65
2022-09-25T20:28:59.929Z,38.92
2022-09-25T20:31:49.350Z,29.95
2022-09-25T20:34:38.107Z,23.58
2022-09-25T20:37:26.197Z,31.38
2022-09-25T20:40:15.350Z,34.70
2022-09-25T20:43:03.407Z,29.38
2022-09-25T20:45:57.960Z,42.60
2022-09-25T20:48:50.424Z,30.38
2022-09-25T20:51:40.370Z,29.30
2022-09-25T20:54:28.608Z,28.13
2022-09-25T20:57:17.453Z,24.23
2022-09-25T21:00:06.113Z,29.08
2022-09-25T21:02:55.865Z,28.80
2022-09-25T21:05:46.709Z,24.75
2022-09-25T21:08:35.866Z,29.27
2022-09-25T21:11:25.511Z,26.58
2022-09-25T21:14:19.720Z,21.92
2022-09-25T21:17:07.875Z,20.25
2022-09-25T21:19:56.103Z,26.73
2022-09-25T21:22:45.356Z,31.25
2022-09-25T21:25:35.211Z,22.63
2022-09-25T21:28:23.542Z,24.85
2022-09-25T21:31:14.659Z,25.08
2022-09-25T21:34:03.531Z,22.63
2022-09-25T21:36:51.898Z,25.75
2022-09-25T21:39:41.390Z,20.13
2022-09-25T21:42:30.909Z,27.88
2022-09-25T21:45:19.154Z,22.30
2022-09-25T21:48:07.854Z,15.52
2022-09-25T21:50:58.164Z,23.92
2022-09-25T21:53:47.272Z,20.92
2022-09-25T21:56:36.579Z,23.77
2022-09-25T21:59:25.251Z,22.10
2022-09-25T22:02:13.382Z,18.67
2022-09-25T22:05:01.903Z,23.75
2022-09-25T22:07:50.194Z,22.55
2022-09-25T22:10:38.523Z,23.55
2022-09-25T22:13:29.909Z,18.25
2022-09-25T22:16:20.460Z,18.73
2022-09-25T22:19:11.248Z,22.38
2022-09-25T22:24:48.515Z,15.90
2022-09-25T22:27:36.926Z,19.33
2022-09-25T22:30:26.900Z,22.08
2022-09-25T22:33:15.943Z,19.90
2022-09-25T22:36:05.927Z,18.65
2022-09-25T22:38:55.485Z,20.80
2022-09-25T22:41:44.084Z,18.30
2022-09-25T22:44:33.165Z,14.95
2022-09-25T22:47:22.484Z,18.42
2022-09-25T22:50:11.648Z,16.58
2022-09-25T22:53:00.035Z,24.25
2022-09-25T22:55:49.045Z,13.45
2022-09-25T22:58:37.043Z,14.32
2022-09-25T23:01:28.900Z,21.73
2022-09-25T23:04:20.805Z,15.80
2022-09-25T23:07:09.378Z,15.15
2022-09-25T23:09:57.764Z,19.77
2022-09-25T23:12:46.152Z,17.65
2022-09-25T23:15:34.506Z,14.40
2022-09-25T23:18:22.792Z,13.30
2022-09-25T23:21:12.548Z,16.40
2022-09-25T23:24:03.064Z,12.68
2022-09-25T23:26:51.660Z,14.93
2022-09-25T23:29:40.449Z,19.08
2022-09-25T23:32:28.302Z,12.52
2022-09-25T23:35:17.393Z,12.85
2022-09-25T23:38:07.438Z,12.13
2022-09-25T23:40:56.096Z,14.32
2022-09-25T23:43:44.844Z,16.98
2022-09-25T23:46:36.237Z,13.40
2022-09-25T23:49:23.957Z,14.25
2022-09-25T23:52:12.606Z,13.35
2022-09-25T23:55:02.017Z,12.50
2022-09-25T23:57:50.712Z,15.35
